Time;durP1;ratioP1;P1;durP2;ratioP2;P2;SDS_P1;SDS_P2;PMS_P1;PMS_P2;Temp;Humidity;BMP_temperature;BMP_pressure;BME280_temperature;BME280_humidity;BME280_pressure;Samples;Min_cycle;Max_cycle;Signal;HPM_P1;HPM_P2
2021/10/11 00:00:20;;;;;;;7.50;5.30;;;4.70;99.90;;;;;;5051742;28;20647;-66
2021/10/11 00:02:45;;;;;;;7.00;5.50;;;4.70;99.90;;;;;;5051498;28;20170;-66
2021/10/11 00:05:11;;;;;;;5.10;4.60;;;4.70;99.90;;;;;;5050941;28;20194;-65
2021/10/11 00:07:38;;;;;;;6.40;5.53;;;4.70;99.90;;;;;;5051635;27;20176;-65
2021/10/11 00:10:06;;;;;;;7.63;4.97;;;4.60;99.90;;;;;;5051803;27;20294;-65
2021/10/11 00:12:31;;;;;;;6.28;4.80;;;4.60;99.90;;;;;;5051941;28;20204;-65
2021/10/11 00:14:57;;;;;;;5.83;5.30;;;4.60;99.90;;;;;;5051465;27;20545;-66
2021/10/11 00:17:23;;;;;;;6.07;4.53;;;4.60;99.90;;;;;;5051346;28;20412;-65
2021/10/11 00:19:51;;;;;;;7.20;4.23;;;4.60;99.90;;;;;;5051468;28;20185;-65
2021/10/11 00:22:21;;;;;;;4.72;4.32;;;4.50;99.90;;;;;;5051303;27;20199;-65
2021/10/11 00:24:47;;;;;;;9.05;6.13;;;4.50;99.90;;;;;;5051645;28;20577;-66
2021/10/11 00:27:13;;;;;;;6.07;5.50;;;4.60;99.90;;;;;;5051092;28;20253;-65
2021/10/11 00:29:39;;;;;;;8.13;5.30;;;4.40;99.90;;;;;;5051222;28;20232;-64
2021/10/11 00:32:07;;;;;;;4.97;4.47;;;4.40;99.90;;;;;;5051485;27;20197;-65
2021/10/11 00:34:34;;;;;;;8.43;6.30;;;4.40;99.90;;;;;;5051285;28;20173;-65
2021/10/11 00:37:00;;;;;;;5.15;4.70;;;4.40;99.90;;;;;;5050931;28;20174;-65
2021/10/11 00:39:25;;;;;;;7.43;4.50;;;4.30;99.90;;;;;;5051191;27;20211;-65
2021/10/11 00:41:51;;;;;;;5.30;4.90;;;4.30;99.90;;;;;;5051521;27;20170;-65
2021/10/11 00:44:16;;;;;;;7.10;5.23;;;4.30;99.90;;;;;;5051350;27;20166;-65
2021/10/11 00:46:42;;;;;;;9.60;5.60;;;4.30;99.90;;;;;;5050310;28;20270;-65
2021/10/11 00:49:08;;;;;;;8.93;5.00;;;4.30;99.90;;;;;;5051119;28;20555;-65
2021/10/11 00:51:34;;;;;;;8.73;5.33;;;4.30;99.90;;;;;;5051196;28;20622;-65
2021/10/11 00:54:00;;;;;;;11.73;5.27;;;4.30;99.90;;;;;;5051111;28;20549;-65
2021/10/11 00:56:26;;;;;;;5.93;5.05;;;4.20;99.90;;;;;;5050744;28;20435;-65
2021/10/11 00:58:51;;;;;;;7.10;5.70;;;4.20;99.90;;;;;;5050509;28;20190;-64
2021/10/11 01:01:17;;;;;;;7.43;5.20;;;4.20;99.90;;;;;;5049255;28;20180;-65
2021/10/11 01:03:43;;;;;;;6.43;5.78;;;4.10;99.90;;;;;;5050941;27;20177;-65
2021/10/11 01:06:09;;;;;;;4.90;4.50;;;4.10;99.90;;;;;;5049781;28;20682;-65
2021/10/11 01:08:35;;;;;;;4.57;4.13;;;4.10;99.90;;;;;;5048202;27;20257;-64
2021/10/11 01:11:01;;;;;;;5.67;5.20;;;4.00;99.90;;;;;;5049780;27;20181;-65
2021/10/11 01:13:27;;;;;;;7.38;5.10;;;4.10;99.90;;;;;;5049303;28;20745;-65
2021/10/11 01:15:52;;;;;;;6.80;4.50;;;4.00;99.90;;;;;;5049217;27;20178;-64
2021/10/11 01:18:18;;;;;;;5.00;4.53;;;4.00;99.90;;;;;;5048790;27;20439;-65
2021/10/11 01:20:44;;;;;;;6.63;5.40;;;4.00;99.90;;;;;;5048473;27;20560;-66
2021/10/11 01:23:09;;;;;;;9.07;5.37;;;4.00;99.90;;;;;;5048546;27;20531;-66
2021/10/11 01:25:35;;;;;;;7.87;4.90;;;4.00;99.90;;;;;;5047124;27;20211;-65
2021/10/11 01:28:02;;;;;;;9.00;5.10;;;4.00;99.90;;;;;;5048040;27;20181;-65
2021/10/11 01:30:27;;;;;;;9.80;6.82;;;3.90;99.90;;;;;;5048429;28;20682;-65
2021/10/11 01:32:53;;;;;;;7.10;5.63;;;3.90;99.90;;;;;;5048124;28;20181;-65
2021/10/11 01:35:19;;;;;;;6.70;5.23;;;3.90;99.90;;;;;;5049982;28;20173;-65
2021/10/11 01:37:47;;;;;;;9.30;5.93;;;3.90;99.90;;;;;;5050059;28;20180;-65
2021/10/11 01:40:13;;;;;;;5.97;5.40;;;3.90;99.90;;;;;;5050187;28;20261;-65
2021/10/11 01:42:39;;;;;;;9.55;5.47;;;3.90;99.90;;;;;;5050697;28;20169;-65
2021/10/11 01:45:06;;;;;;;7.27;6.23;;;3.80;99.90;;;;;;5049878;28;20245;-65
2021/10/11 01:47:32;;;;;;;6.82;6.18;;;3.80;99.90;;;;;;5049792;27;20181;-65
2021/10/11 01:49:58;;;;;;;6.60;5.57;;;3.80;99.90;;;;;;5050286;27;20217;-64
2021/10/11 01:52:24;;;;;;;5.87;5.13;;;3.80;99.90;;;;;;5050353;27;20174;-65
2021/10/11 01:54:50;;;;;;;7.10;5.30;;;3.80;99.90;;;;;;5050194;28;20639;-65
2021/10/11 01:57:16;;;;;;;8.38;6.90;;;3.90;99.90;;;;;;5048600;28;20415;-65
2021/10/11 01:59:43;;;;;;;8.05;6.10;;;3.90;99.90;;;;;;5049457;27;20213;-65
2021/10/11 02:02:09;;;;;;;7.05;5.28;;;3.90;99.90;;;;;;5049822;27;20195;-65
2021/10/11 02:04:35;;;;;;;7.10;6.50;;;3.90;99.90;;;;;;5049875;27;20188;-65
2021/10/11 02:07:01;;;;;;;6.90;4.63;;;3.80;99.90;;;;;;5049590;28;20411;-65
2021/10/11 02:09:27;;;;;;;7.10;5.93;;;3.80;99.90;;;;;;5049965;27;20574;-65
2021/10/11 02:11:52;;;;;;;6.27;5.50;;;3.80;99.90;;;;;;5050402;27;20662;-65
2021/10/11 02:14:18;;;;;;;5.73;4.60;;;3.80;99.90;;;;;;5049470;27;20427;-64
2021/10/11 02:16:44;;;;;;;4.70;4.30;;;3.80;99.90;;;;;;5049525;28;20177;-65
2021/10/11 02:19:09;;;;;;;8.20;6.10;;;3.70;99.90;;;;;;5049850;28;20238;-65
2021/10/11 02:21:35;;;;;;;5.13;4.70;;;3.70;99.90;;;;;;5049767;28;20173;-65
2021/10/11 02:24:01;;;;;;;5.37;4.90;;;3.70;99.90;;;;;;5049728;28;20624;-65
2021/10/11 02:26:26;;;;;;;7.17;5.50;;;3.70;99.90;;;;;;5049635;28;20589;-65
2021/10/11 02:28:52;;;;;;;6.07;5.50;;;3.60;99.90;;;;;;5048610;28;20199;-65
2021/10/11 02:31:18;;;;;;;9.47;5.37;;;3.60;99.90;;;;;;5049569;27;20215;-64
2021/10/11 02:33:45;;;;;;;10.98;6.20;;;3.60;99.90;;;;;;5049660;28;20182;-65
2021/10/11 02:36:11;;;;;;;5.45;4.57;;;3.60;99.90;;;;;;5049758;28;20178;-65
2021/10/11 02:38:37;;;;;;;5.88;5.22;;;3.60;99.90;;;;;;5049107;28;20170;-65
2021/10/11 02:41:03;;;;;;;4.97;4.47;;;3.60;99.90;;;;;;5049776;27;20185;-64
2021/10/11 02:43:28;;;;;;;4.30;3.80;;;3.60;99.90;;;;;;5049469;27;20184;-65
2021/10/11 02:45:54;;;;;;;10.17;5.60;;;3.60;99.90;;;;;;5051947;28;20197;-65
2021/10/11 02:48:20;;;;;;;5.07;4.70;;;3.60;99.90;;;;;;5052455;28;20250;-65
2021/10/11 02:50:46;;;;;;;10.10;5.13;;;3.60;99.90;;;;;;5052977;27;20780;-65
2021/10/11 02:53:11;;;;;;;6.43;4.50;;;3.50;99.90;;;;;;5053425;28;20177;-64
2021/10/11 02:55:37;;;;;;;4.37;3.97;;;3.50;99.90;;;;;;5053121;27;20527;-64
2021/10/11 02:58:03;;;;;;;6.00;4.80;;;3.50;99.90;;;;;;5052346;28;20178;-64
2021/10/11 03:00:28;;;;;;;10.27;5.00;;;3.40;99.90;;;;;;5052918;27;20515;-64
2021/10/11 03:02:54;;;;;;;7.00;5.27;;;3.50;99.90;;;;;;5052824;27;20654;-65
2021/10/11 03:05:20;;;;;;;5.93;5.27;;;3.50;99.90;;;;;;5052733;27;20296;-65
2021/10/11 03:07:46;;;;;;;8.80;5.90;;;3.40;99.90;;;;;;5052332;27;20219;-65
2021/10/11 03:10:11;;;;;;;6.50;5.83;;;3.40;99.90;;;;;;5052834;27;20277;-65
2021/10/11 03:12:37;;;;;;;5.57;4.83;;;3.40;99.90;;;;;;5052561;27;20577;-65
2021/10/11 03:15:04;;;;;;;4.33;3.70;;;3.40;99.90;;;;;;5052489;27;20527;-65
2021/10/11 03:17:30;;;;;;;8.45;4.95;;;3.40;99.90;;;;;;5051086;27;20640;-65
2021/10/11 03:19:56;;;;;;;5.70;5.10;;;3.30;99.90;;;;;;5053055;28;20254;-65
2021/10/11 03:22:21;;;;;;;6.20;4.70;;;3.30;99.90;;;;;;5052519;28;20179;-63
2021/10/11 03:24:47;;;;;;;6.70;4.90;;;3.30;99.90;;;;;;5052297;28;20531;-66
2021/10/11 03:27:12;;;;;;;5.47;4.80;;;3.30;99.90;;;;;;5051853;28;20257;-63
2021/10/11 03:29:38;;;;;;;7.70;5.23;;;3.30;99.90;;;;;;5052429;27;20193;-65
2021/10/11 03:32:04;;;;;;;4.77;4.33;;;3.20;99.90;;;;;;5052596;27;20647;-65
2021/10/11 03:34:29;;;;;;;7.23;4.97;;;3.20;99.90;;;;;;5051314;28;20176;-65
2021/10/11 03:36:55;;;;;;;4.50;4.10;;;3.20;99.90;;;;;;5052148;27;20495;-65
2021/10/11 03:39:21;;;;;;;6.70;4.70;;;3.20;99.90;;;;;;5052450;27;20667;-65
2021/10/11 03:41:46;;;;;;;6.40;4.93;;;3.20;99.90;;;;;;5052110;27;20178;-65
2021/10/11 03:44:12;;;;;;;7.80;5.13;;;3.10;99.90;;;;;;5052321;28;20177;-65
2021/10/11 03:46:38;;;;;;;6.20;5.63;;;3.10;99.90;;;;;;5051859;28;20656;-66
2021/10/11 03:49:04;;;;;;;8.57;6.20;;;3.10;99.90;;;;;;5052224;28;20192;-64
2021/10/11 03:51:30;;;;;;;6.38;5.00;;;3.10;99.90;;;;;;5052277;28;20495;-65
2021/10/11 03:53:55;;;;;;;6.03;5.43;;;3.10;99.90;;;;;;5052383;28;20208;-65
2021/10/11 03:56:21;;;;;;;6.10;4.67;;;3.10;99.90;;;;;;5051304;27;20406;-65
2021/10/11 03:58:47;;;;;;;7.80;7.13;;;3.10;99.90;;;;;;5051759;28;20169;-65
2021/10/11 04:01:13;;;;;;;8.10;6.15;;;3.10;99.90;;;;;;5051977;28;20412;-65
2021/10/11 04:03:39;;;;;;;7.80;5.23;;;3.00;99.90;;;;;;5052158;28;20501;-65
2021/10/11 04:06:06;;;;;;;6.10;5.47;;;3.00;99.90;;;;;;5051722;27;20212;-65
2021/10/11 04:08:40;;;;;;;6.22;5.72;;;3.00;99.90;;;;;;5051487;27;20225;-65
2021/10/11 04:13:44;;;;;;;15.85;6.50;;;2.90;99.90;;;;;;5051927;28;20162;-65
2021/10/11 04:16:10;;;;;;;9.18;5.47;;;2.90;99.90;;;;;;5051790;28;20225;-66
2021/10/11 04:18:37;;;;;;;5.00;4.47;;;2.90;99.90;;;;;;5051293;28;20252;-65
2021/10/11 04:21:03;;;;;;;6.65;6.00;;;2.90;99.90;;;;;;5051520;28;20181;-65
2021/10/11 04:23:29;;;;;;;8.00;6.60;;;2.90;99.90;;;;;;5051560;28;20201;-65
2021/10/11 04:25:55;;;;;;;7.93;5.50;;;3.00;99.90;;;;;;5051387;28;20185;-66
2021/10/11 04:28:21;;;;;;;4.97;4.40;;;2.90;99.90;;;;;;5050997;28;20170;-65
2021/10/11 04:30:47;;;;;;;8.07;6.07;;;2.90;99.90;;;;;;5051513;28;20253;-65
2021/10/11 04:33:14;;;;;;;9.03;5.87;;;2.90;99.90;;;;;;5051605;28;20627;-65
2021/10/11 04:35:40;;;;;;;6.15;5.55;;;3.00;99.90;;;;;;5049860;28;20427;-65
2021/10/11 04:38:06;;;;;;;9.75;6.50;;;3.00;99.90;;;;;;5051255;28;20278;-65
2021/10/11 04:40:33;;;;;;;5.75;5.35;;;3.00;99.90;;;;;;5051191;28;20300;-65
2021/10/11 04:42:59;;;;;;;9.93;5.50;;;3.00;99.90;;;;;;5051411;28;20206;-65
2021/10/11 04:45:28;;;;;;;7.30;5.77;;;3.00;99.90;;;;;;5050987;28;20193;-66
2021/10/11 04:47:55;;;;;;;4.75;4.35;;;3.00;99.90;;;;;;5050847;28;20445;-65
2021/10/11 04:50:21;;;;;;;5.63;5.13;;;3.00;99.90;;;;;;5050677;28;20213;-66
2021/10/11 04:52:47;;;;;;;9.30;5.40;;;3.10;99.90;;;;;;5050668;28;20532;-66
2021/10/11 04:55:12;;;;;;;8.67;7.13;;;3.10;99.90;;;;;;5051270;27;20166;-65
2021/10/11 04:57:38;;;;;;;10.00;7.20;;;3.10;99.90;;;;;;5050842;27;20195;-66
2021/10/11 05:00:04;;;;;;;10.47;6.20;;;3.20;99.90;;;;;;5050920;27;20194;-65
2021/10/11 05:02:30;;;;;;;8.18;5.70;;;3.20;99.90;;;;;;5050959;27;20655;-66
2021/10/11 05:04:56;;;;;;;7.10;5.13;;;3.20;99.90;;;;;;5050343;27;20205;-66
2021/10/11 05:07:21;;;;;;;5.10;4.60;;;3.30;99.90;;;;;;5050283;27;20193;-65
2021/10/11 05:09:47;;;;;;;5.97;5.23;;;3.30;99.90;;;;;;5049402;28;20675;-65
2021/10/11 05:12:12;;;;;;;11.53;7.87;;;3.30;99.90;;;;;;5050973;27;20197;-66
2021/10/11 05:14:38;;;;;;;8.57;6.57;;;3.30;99.90;;;;;;5050956;27;20203;-66
2021/10/11 05:17:04;;;;;;;9.00;7.60;;;3.30;99.90;;;;;;5050149;27;20649;-64
2021/10/11 05:19:29;;;;;;;5.17;4.67;;;3.20;99.90;;;;;;5050675;28;20193;-64
2021/10/11 05:21:55;;;;;;;6.53;6.00;;;3.30;99.90;;;;;;5050871;28;20181;-65
2021/10/11 05:24:23;;;;;;;9.50;7.03;;;3.20;99.90;;;;;;5050852;28;20177;-64
2021/10/11 05:26:50;;;;;;;9.02;6.75;;;3.20;99.90;;;;;;5050159;28;20451;-65
2021/10/11 05:29:16;;;;;;;9.63;7.40;;;3.10;99.90;;;;;;5049470;28;20190;-64
2021/10/11 05:31:42;;;;;;;10.95;6.55;;;3.10;99.90;;;;;;5048575;28;20209;-64
2021/10/11 05:34:08;;;;;;;9.07;8.17;;;3.10;99.90;;;;;;5050651;28;20200;-65
2021/10/11 05:36:34;;;;;;;7.50;5.90;;;3.20;99.90;;;;;;5050119;28;20189;-66
2021/10/11 05:38:59;;;;;;;10.57;7.40;;;3.30;99.90;;;;;;5050354;28;20448;-65
2021/10/11 05:41:25;;;;;;;11.50;7.80;;;3.30;99.90;;;;;;5050403;28;20623;-65
2021/10/11 05:43:50;;;;;;;9.17;5.80;;;3.40;99.90;;;;;;5050303;28;20226;-64
2021/10/11 05:46:16;;;;;;;10.67;6.77;;;3.40;99.90;;;;;;5049954;28;20201;-64
2021/10/11 05:48:42;;;;;;;9.80;7.07;;;3.40;99.90;;;;;;5049668;27;20173;-64
2021/10/11 05:51:07;;;;;;;10.63;6.07;;;3.40;99.90;;;;;;5050444;28;20232;-64
2021/10/11 05:53:33;;;;;;;8.73;7.90;;;3.40;99.90;;;;;;5050326;28;20194;-62
2021/10/11 05:55:59;;;;;;;10.30;4.67;;;3.40;99.90;;;;;;5050355;28;20176;-62
2021/10/11 05:58:24;;;;;;;11.57;6.70;;;3.40;99.90;;;;;;5049860;28;20204;-62
2021/10/11 06:00:50;;;;;;;12.07;5.67;;;3.30;99.90;;;;;;5049540;28;20215;-62
2021/10/11 06:03:16;;;;;;;7.73;6.57;;;3.30;99.90;;;;;;5050108;27;20176;-62
2021/10/11 06:05:41;;;;;;;9.77;7.27;;;3.40;99.90;;;;;;5050332;27;20666;-63
2021/10/11 06:08:07;;;;;;;15.00;7.13;;;3.40;99.90;;;;;;5049741;27;20207;-63
2021/10/11 06:10:33;;;;;;;8.60;6.97;;;3.50;99.90;;;;;;5049795;27;20205;-64
2021/10/11 06:12:59;;;;;;;10.83;7.20;;;3.60;99.90;;;;;;5049945;28;20176;-62
2021/10/11 06:15:24;;;;;;;11.05;9.45;;;3.70;99.90;;;;;;5049254;28;20422;-63
2021/10/11 06:17:50;;;;;;;16.70;9.10;;;3.80;99.90;;;;;;5049573;28;20248;-62
2021/10/11 06:20:16;;;;;;;14.43;8.30;;;3.90;99.90;;;;;;5051762;27;20489;-63
2021/10/11 06:22:42;;;;;;;11.10;8.23;;;4.00;99.90;;;;;;5049675;27;20427;-64
2021/10/11 06:25:08;;;;;;;8.73;7.80;;;4.20;99.90;;;;;;5054972;28;20229;-63
2021/10/11 06:27:34;;;;;;;13.98;9.80;;;4.30;99.90;;;;;;5049435;28;20242;-63
2021/10/11 06:29:59;;;;;;;15.65;8.43;;;4.50;99.90;;;;;;5045927;28;20201;-62
2021/10/11 06:32:25;;;;;;;12.73;8.83;;;4.70;99.90;;;;;;5026683;28;20176;-66
2021/10/11 06:34:51;;;;;;;12.30;10.47;;;4.80;99.90;;;;;;5059608;28;20425;-62
2021/10/11 06:37:17;;;;;;;14.33;8.03;;;5.00;99.90;;;;;;5043544;28;20440;-65
2021/10/11 06:39:43;;;;;;;10.93;9.83;;;5.20;99.90;;;;;;5023593;28;20224;-62
2021/10/11 06:42:08;;;;;;;13.00;8.73;;;5.40;99.90;;;;;;5044268;28;20168;-64
2021/10/11 06:44:35;;;;;;;8.20;6.10;;;5.50;99.90;;;;;;5049223;27;20930;-62
2021/10/11 06:47:00;;;;;;;13.45;7.65;;;5.60;99.90;;;;;;5050008;27;20204;-61
2021/10/11 06:49:26;;;;;;;11.50;8.20;;;5.80;99.90;;;;;;5051301;28;20196;-63
2021/10/11 06:51:52;;;;;;;10.33;8.07;;;5.90;99.90;;;;;;5051746;27;20261;-62
2021/10/11 06:54:17;;;;;;;15.97;6.63;;;6.00;99.90;;;;;;5049071;28;20180;-64
2021/10/11 06:56:43;;;;;;;8.93;6.77;;;6.20;99.90;;;;;;5053237;28;20266;-62
2021/10/11 06:59:08;;;;;;;8.17;6.93;;;6.30;99.90;;;;;;5057343;27;20252;-61
2021/10/11 07:01:34;;;;;;;8.70;7.80;;;6.60;99.90;;;;;;5053574;27;20191;-62
2021/10/11 07:04:00;;;;;;;7.93;7.13;;;6.60;99.90;;;;;;5042831;28;20194;-61
2021/10/11 07:06:26;;;;;;;8.37;7.37;;;6.70;99.90;;;;;;5034173;28;20237;-63
2021/10/11 07:08:52;;;;;;;6.50;5.67;;;6.90;99.90;;;;;;5044635;28;20764;-61
2021/10/11 07:11:18;;;;;;;8.95;6.72;;;7.20;99.90;;;;;;5040365;28;21000;-65
2021/10/11 07:13:44;;;;;;;8.95;7.60;;;7.60;99.90;;;;;;5036978;28;20230;-60
2021/10/11 07:16:10;;;;;;;6.20;5.40;;;8.00;99.90;;;;;;5040977;28;20186;-62
2021/10/11 07:18:38;;;;;;;10.80;6.85;;;8.50;99.90;;;;;;5051760;28;20596;-63
2021/10/11 07:21:05;;;;;;;7.30;6.60;;;8.90;99.90;;;;;;5052089;28;20189;-63
2021/10/11 07:23:32;;;;;;;6.73;6.00;;;9.30;99.90;;;;;;5052376;28;20651;-62
2021/10/11 07:25:59;;;;;;;9.50;7.83;;;9.90;99.90;;;;;;5061265;28;20474;-62
2021/10/11 07:28:25;;;;;;;9.00;7.70;;;10.50;99.90;;;;;;5052549;28;20394;-63
2021/10/11 07:30:52;;;;;;;8.40;7.60;;;11.10;99.90;;;;;;5038594;28;20453;-62
2021/10/11 07:33:19;;;;;;;7.70;6.47;;;11.80;99.90;;;;;;5037889;28;20443;-67
2021/10/11 07:38:21;;;;;;;5.83;5.30;;;12.80;99.90;;;;;;5551132;22;20475;-69
2021/10/11 07:40:50;;;;;;;7.50;6.73;;;13.20;99.90;;;;;;5037348;28;20419;-69
2021/10/11 07:43:15;;;;;;;8.20;5.90;;;13.60;99.20;;;;;;5017395;28;20434;-67
2021/10/11 07:45:41;;;;;;;8.53;7.60;;;14.00;98.50;;;;;;5031096;28;20943;-68
2021/10/11 07:48:07;;;;;;;8.37;7.33;;;14.30;97.60;;;;;;5032042;28;20198;-66
2021/10/11 07:50:33;;;;;;;7.93;7.13;;;14.60;96.50;;;;;;5038148;28;20203;-67
2021/10/11 07:52:58;;;;;;;7.63;5.40;;;14.60;96.10;;;;;;5049778;28;20177;-67
2021/10/11 07:55:24;;;;;;;7.50;6.10;;;15.00;95.80;;;;;;5568188;22;20221;-67
2021/10/11 07:57:49;;;;;;;9.87;7.27;;;15.50;95.10;;;;;;5036110;28;20520;-70
2021/10/11 08:00:20;;;;;;;9.90;6.73;;;16.10;94.20;;;;;;5029840;28;20179;-68
2021/10/11 08:02:46;;;;;;;6.87;6.20;;;16.50;93.20;;;;;;5019658;28;20651;-68
2021/10/11 08:05:14;;;;;;;6.27;5.67;;;17.00;91.70;;;;;;5036549;28;20425;-68
2021/10/11 08:07:43;;;;;;;9.07;6.73;;;17.50;92.40;;;;;;5030857;28;20423;-68
2021/10/11 08:10:10;;;;;;;7.87;5.90;;;18.00;91.10;;;;;;5043861;28;20985;-68
2021/10/11 08:12:36;;;;;;;9.60;7.27;;;18.10;89.40;;;;;;5029052;28;20771;-68
2021/10/11 08:15:03;;;;;;;8.63;7.30;;;18.00;88.20;;;;;;5044952;28;20752;-68
2021/10/11 08:17:29;;;;;;;7.40;6.27;;;17.80;88.90;;;;;;5028984;28;20414;-68
2021/10/11 08:19:54;;;;;;;6.60;6.00;;;17.70;88.60;;;;;;5022609;28;20396;-70
2021/10/11 08:22:21;;;;;;;6.97;6.37;;;17.60;89.00;;;;;;5019328;28;20242;-68
2021/10/11 08:24:48;;;;;;;7.20;6.50;;;17.30;89.60;;;;;;5027674;28;20196;-68
2021/10/11 08:27:17;;;;;;;7.20;6.50;;;17.20;90.10;;;;;;5036222;28;20435;-68
2021/10/11 08:29:52;;;;;;;6.90;6.30;;;17.30;90.50;;;;;;5033481;28;20403;-69
2021/10/11 08:32:21;;;;;;;7.23;6.07;;;17.50;90.40;;;;;;5038240;28;20397;-68
2021/10/11 08:34:48;;;;;;;9.20;8.30;;;17.80;90.00;;;;;;5045714;28;20424;-68
2021/10/11 08:37:13;;;;;;;10.53;6.87;;;18.00;89.30;;;;;;5051421;28;20839;-69
2021/10/11 08:39:41;;;;;;;9.10;7.07;;;18.10;87.40;;;;;;5048020;28;20435;-70
2021/10/11 08:42:07;;;;;;;8.40;7.50;;;18.30;87.30;;;;;;5044907;28;20205;-70
2021/10/11 08:44:32;;;;;;;9.60;7.73;;;18.50;86.60;;;;;;5044629;28;20975;-69
2021/10/11 08:46:59;;;;;;;8.90;7.03;;;18.60;86.10;;;;;;5044242;28;20473;-68
2021/10/11 08:49:26;;;;;;;9.18;7.50;;;18.60;85.40;;;;;;5037491;28;20880;-67
2021/10/11 08:51:51;;;;;;;9.00;7.40;;;18.70;85.50;;;;;;5021315;28;20257;-68
2021/10/11 08:54:17;;;;;;;8.70;6.80;;;19.00;84.90;;;;;;5032806;28;21006;-71
2021/10/11 08:56:43;;;;;;;8.10;7.03;;;19.30;83.80;;;;;;5025930;28;20493;-69
2021/10/11 08:59:08;;;;;;;7.53;6.80;;;19.60;84.00;;;;;;5048122;28;20676;-72
2021/10/11 09:01:34;;;;;;;7.40;6.33;;;19.80;82.40;;;;;;5019515;28;20176;-68
2021/10/11 09:04:20;;;;;;;6.87;6.20;;;19.90;83.30;;;;;;5050008;28;20237;-68
2021/10/11 09:07:06;;;;;;;8.73;7.53;;;20.20;83.60;;;;;;5031024;28;20202;-70
2021/10/11 09:09:52;;;;;;;10.07;7.00;;;20.40;81.70;;;;;;5020294;28;20894;-72
2021/10/11 09:12:27;;;;;;;8.37;7.13;;;20.40;80.50;;;;;;5039763;28;20396;-70
2021/10/11 09:15:03;;;;;;;7.63;6.77;;;19.90;79.40;;;;;;5036268;28;20422;-68
2021/10/11 09:17:32;;;;;;;8.63;7.60;;;19.40;81.00;;;;;;5032432;28;20434;-68
2021/10/11 09:20:09;;;;;;;10.00;7.60;;;18.90;82.60;;;;;;5033413;28;20492;-68
2021/10/11 09:22:36;;;;;;;8.30;6.50;;;18.70;83.70;;;;;;5033521;28;20434;-68
2021/10/11 09:25:02;;;;;;;14.43;7.33;;;18.90;85.80;;;;;;5023767;28;20494;-70
2021/10/11 09:27:28;;;;;;;9.40;7.70;;;18.80;83.90;;;;;;5013277;28;20453;-71
2021/10/11 09:29:54;;;;;;;7.60;6.80;;;18.80;85.30;;;;;;5013717;28;20376;-71
2021/10/11 09:32:28;;;;;;;7.03;6.33;;;19.00;83.60;;;;;;5024542;28;20636;-70
2021/10/11 09:34:53;;;;;;;8.97;6.83;;;19.00;83.40;;;;;;5027564;28;21047;-71
2021/10/11 09:37:19;;;;;;;10.20;8.83;;;18.90;84.40;;;;;;5033753;28;20506;-70
2021/10/11 09:39:45;;;;;;;10.47;8.07;;;19.10;82.90;;;;;;5039874;28;20261;-70
2021/10/11 09:42:16;;;;;;;7.37;6.57;;;19.10;83.30;;;;;;5033723;28;20280;-70
2021/10/11 09:44:52;;;;;;;8.90;6.73;;;19.10;82.80;;;;;;5032062;28;20718;-70
2021/10/11 09:47:38;;;;;;;7.80;7.00;;;19.00;84.00;;;;;;5028748;28;20769;-71
2021/10/11 09:50:10;;;;;;;9.47;6.97;;;19.00;86.00;;;;;;5019418;28;20384;-70
2021/10/11 09:52:37;;;;;;;8.77;6.53;;;19.20;85.30;;;;;;5033423;28;20462;-71
2021/10/11 09:55:05;;;;;;;10.23;6.00;;;19.20;83.70;;;;;;5038374;28;20409;-68
2021/10/11 09:57:31;;;;;;;7.37;6.33;;;19.00;83.00;;;;;;5038789;28;20772;-70
2021/10/11 10:00:04;;;;;;;7.67;6.50;;;18.90;84.50;;;;;;5033066;28;20451;-70
2021/10/11 10:02:31;;;;;;;7.07;6.37;;;19.10;84.50;;;;;;5029227;28;20415;-71
2021/10/11 10:05:00;;;;;;;7.40;6.37;;;19.60;83.50;;;;;;5034935;28;20504;-71
2021/10/11 10:07:27;;;;;;;9.50;7.23;;;20.20;83.50;;;;;;5036845;28;20441;-72
2021/10/11 10:09:55;;;;;;;7.83;7.03;;;20.50;83.10;;;;;;5038367;28;20396;-70
2021/10/11 10:12:21;;;;;;;7.37;6.67;;;20.80;81.80;;;;;;5028989;28;20419;-70
2021/10/11 10:14:58;;;;;;;8.23;6.60;;;20.90;79.70;;;;;;5034404;28;20395;-70
2021/10/11 10:17:34;;;;;;;12.70;7.70;;;20.90;79.30;;;;;;5036790;28;20443;-70
2021/10/11 10:20:08;;;;;;;7.33;6.60;;;21.00;78.00;;;;;;5038696;28;20400;-68
2021/10/11 10:22:35;;;;;;;7.33;6.57;;;20.80;77.60;;;;;;5040723;28;20437;-70
2021/10/11 10:25:20;;;;;;;6.70;6.10;;;20.80;78.10;;;;;;5039420;28;20404;-66
2021/10/11 10:27:48;;;;;;;7.40;6.70;;;20.90;78.40;;;;;;5031799;28;20437;-69
2021/10/11 10:30:23;;;;;;;7.90;7.07;;;20.80;80.20;;;;;;5036001;28;20395;-68
2021/10/11 10:33:01;;;;;;;8.20;6.83;;;20.60;77.90;;;;;;5029945;28;20407;-67
2021/10/11 10:35:30;;;;;;;5.57;5.07;;;20.40;78.70;;;;;;5031075;28;20925;-68
2021/10/11 10:37:56;;;;;;;8.17;7.07;;;20.40;79.20;;;;;;5026970;28;20836;-65
2021/10/11 10:40:32;;;;;;;8.40;7.60;;;20.40;78.40;;;;;;5052617;28;20379;-67
2021/10/11 10:43:09;;;;;;;7.47;6.63;;;20.30;77.30;;;;;;5031927;28;20643;-71
2021/10/11 10:45:36;;;;;;;8.83;6.77;;;20.20;79.10;;;;;;5019052;28;20841;-71
2021/10/11 10:48:15;;;;;;;8.47;7.57;;;20.30;81.80;;;;;;5021579;28;20432;-72
2021/10/11 10:50:40;;;;;;;7.60;6.80;;;20.30;79.50;;;;;;5031041;28;20506;-71
2021/10/11 10:53:07;;;;;;;14.20;7.87;;;20.40;79.90;;;;;;5032132;28;20873;-71
2021/10/11 10:55:35;;;;;;;7.73;6.30;;;20.20;78.10;;;;;;5031248;28;20444;-71
2021/10/11 10:58:03;;;;;;;9.50;7.47;;;20.00;80.70;;;;;;5030164;28;20452;-70
2021/10/11 11:00:28;;;;;;;11.07;7.70;;;20.00;82.30;;;;;;5032755;28;20384;-71
2021/10/11 11:02:55;;;;;;;8.83;7.90;;;19.60;80.40;;;;;;5032418;28;20437;-71
2021/10/11 11:05:23;;;;;;;11.53;8.07;;;19.00;82.30;;;;;;5032842;28;20244;-71
2021/10/11 11:07:52;;;;;;;10.80;9.20;;;18.60;84.50;;;;;;5035058;28;20428;-71
2021/10/11 11:10:33;;;;;;;7.90;6.87;;;18.30;85.00;;;;;;5036154;28;20383;-72
2021/10/11 11:13:24;;;;;;;12.97;8.57;;;18.00;85.80;;;;;;5035621;28;20391;-71
2021/10/11 11:15:52;;;;;;;9.27;8.30;;;17.70;88.20;;;;;;5035943;28;20435;-71
2021/10/11 11:18:20;;;;;;;11.27;9.20;;;17.20;88.50;;;;;;5025010;28;20494;-70
2021/10/11 11:20:48;;;;;;;12.00;7.80;;;16.90;89.10;;;;;;5014976;28;20446;-71
2021/10/11 11:23:19;;;;;;;12.40;8.40;;;16.60;90.20;;;;;;5034465;28;20421;-70
2021/10/11 11:25:48;;;;;;;11.33;8.40;;;16.40;90.80;;;;;;5034125;28;20429;-69
2021/10/11 11:28:18;;;;;;;11.10;8.20;;;16.10;91.00;;;;;;5034749;28;20415;-70
2021/10/11 11:30:45;;;;;;;9.17;7.60;;;16.10;91.20;;;;;;5029972;28;20431;-69
2021/10/11 11:33:14;;;;;;;13.43;8.50;;;15.90;91.40;;;;;;5014595;28;20445;-70
2021/10/11 11:35:49;;;;;;;11.17;9.37;;;15.80;92.30;;;;;;5034223;28;20397;-70
2021/10/11 11:38:19;;;;;;;8.47;7.40;;;15.70;92.70;;;;;;5035216;28;20842;-69
2021/10/11 11:40:56;;;;;;;10.90;8.90;;;15.70;92.80;;;;;;5016848;28;20956;-70
2021/10/11 11:43:23;;;;;;;11.63;8.30;;;15.80;92.60;;;;;;5015726;28;20737;-68
2021/10/11 11:45:51;;;;;;;9.53;8.23;;;15.70;92.40;;;;;;5033352;28;20881;-67
2021/10/11 11:48:24;;;;;;;11.40;8.03;;;15.60;92.10;;;;;;5034263;28;21065;-68
2021/10/11 11:51:04;;;;;;;12.93;7.50;;;15.70;92.40;;;;;;5035157;28;20408;-67
2021/10/11 11:53:32;;;;;;;9.83;7.33;;;15.80;92.60;;;;;;5034972;28;20485;-67
2021/10/11 11:56:00;;;;;;;8.60;7.33;;;15.90;92.50;;;;;;5033032;28;20819;-69
2021/10/11 11:58:37;;;;;;;8.50;6.80;;;16.00;93.20;;;;;;5033073;28;20557;-69
2021/10/11 12:01:04;;;;;;;10.27;7.10;;;15.90;92.40;;;;;;5035089;28;20468;-68
2021/10/11 12:03:37;;;;;;;8.57;7.60;;;15.90;92.00;;;;;;5033714;28;20416;-69
2021/10/11 12:06:05;;;;;;;11.53;8.10;;;15.90;92.50;;;;;;5034207;28;20471;-69
2021/10/11 12:08:31;;;;;;;7.57;6.30;;;15.80;92.50;;;;;;5032731;28;20972;-69
2021/10/11 12:11:02;;;;;;;9.60;6.30;;;15.70;92.60;;;;;;5034886;28;20424;-70
2021/10/11 12:13:37;;;;;;;7.13;6.40;;;15.70;92.70;;;;;;5033600;28;20931;-70
2021/10/11 12:16:07;;;;;;;7.23;6.53;;;15.80;92.50;;;;;;5032786;28;20435;-69
2021/10/11 12:18:37;;;;;;;8.27;6.20;;;15.70;92.00;;;;;;5033453;28;20871;-70
2021/10/11 12:21:03;;;;;;;9.00;7.00;;;15.70;92.40;;;;;;5033394;28;20433;-69
2021/10/11 12:23:41;;;;;;;11.53;7.00;;;15.70;92.40;;;;;;5035080;28;20793;-69
2021/10/11 12:26:08;;;;;;;8.90;7.40;;;15.70;92.30;;;;;;5026438;28;20452;-67
2021/10/11 12:28:35;;;;;;;6.80;5.70;;;15.70;92.60;;;;;;5024606;28;20444;-69
2021/10/11 12:31:04;;;;;;;9.80;7.50;;;15.70;92.40;;;;;;5022813;28;20396;-70
2021/10/11 12:33:38;;;;;;;10.57;6.80;;;15.70;91.50;;;;;;5013756;28;20899;-70
2021/10/11 12:36:06;;;;;;;7.90;6.70;;;15.70;92.10;;;;;;5029631;28;20387;-66
2021/10/11 12:38:38;;;;;;;9.17;7.07;;;15.80;92.50;;;;;;5032702;28;20419;-68
2021/10/11 12:41:15;;;;;;;8.30;6.00;;;15.80;92.10;;;;;;5034670;28;20470;-68
2021/10/11 12:43:54;;;;;;;7.87;6.50;;;15.70;92.30;;;;;;5034054;28;20416;-68
2021/10/11 12:46:20;;;;;;;9.33;6.63;;;15.60;92.40;;;;;;5034187;28;20426;-68
2021/10/11 12:48:51;;;;;;;8.77;7.20;;;15.60;92.70;;;;;;5033897;28;20439;-68
2021/10/11 12:51:31;;;;;;;9.27;7.03;;;15.60;92.60;;;;;;5033983;28;20822;-68
2021/10/11 12:54:02;;;;;;;9.90;7.13;;;15.60;92.60;;;;;;5034680;28;20466;-68
2021/10/11 12:56:28;;;;;;;10.10;8.20;;;15.60;92.60;;;;;;5034130;28;20417;-67